createdAt,value
2024-05-09T00:02:15.337Z,9.67
2024-05-09T00:05:06.078Z,9.40
2024-05-09T00:07:59.405Z,8.80
2024-05-09T00:10:50.013Z,9.10
2024-05-09T00:13:40.516Z,9.80
2024-05-09T00:16:30.971Z,7.90
2024-05-09T00:19:21.609Z,9.70
2024-05-09T00:22:12.119Z,8.87
2024-05-09T00:25:06.075Z,8.70
2024-05-09T00:27:56.523Z,7.87
2024-05-09T00:30:47.008Z,8.73
2024-05-09T00:33:37.701Z,8.63
2024-05-09T00:36:28.326Z,9.80
2024-05-09T00:39:18.889Z,7.60
2024-05-09T00:42:12.094Z,11.00
2024-05-09T00:45:02.547Z,7.73
2024-05-09T00:47:53.345Z,7.03
2024-05-09T00:50:45.466Z,9.30
2024-05-09T00:53:37.070Z,9.47
2024-05-09T00:56:28.397Z,8.80
2024-05-09T00:59:22.608Z,7.83
2024-05-09T01:02:13.711Z,7.17
2024-05-09T01:05:04.952Z,8.53
2024-05-09T01:07:55.521Z,9.07
2024-05-09T01:10:48.616Z,8.30
2024-05-09T01:13:39.369Z,8.67
2024-05-09T01:16:32.723Z,9.17
2024-05-09T01:19:29.278Z,8.33
2024-05-09T01:22:19.823Z,8.27
2024-05-09T01:25:13.083Z,7.50
2024-05-09T01:28:03.663Z,8.27
2024-05-09T01:30:54.116Z,7.43
2024-05-09T01:33:45.263Z,8.97
2024-05-09T01:36:35.863Z,8.30
2024-05-09T01:39:26.509Z,8.40
2024-05-09T01:42:19.726Z,8.00
2024-05-09T01:45:11.318Z,11.27
2024-05-09T01:48:02.702Z,9.40
2024-05-09T01:50:53.682Z,11.07
2024-05-09T01:53:44.183Z,8.87
2024-05-09T01:56:34.808Z,8.70
2024-05-09T01:59:28.024Z,8.77
2024-05-09T02:02:18.843Z,10.70
2024-05-09T02:05:10.062Z,8.00
2024-05-09T02:08:00.725Z,9.27
2024-05-09T02:10:52.312Z,8.97
2024-05-09T02:13:44.377Z,10.97
2024-05-09T02:16:37.449Z,8.80
2024-05-09T02:19:28.018Z,12.30
2024-05-09T02:22:18.554Z,9.43
2024-05-09T02:25:09.217Z,12.10
2024-05-09T02:27:59.752Z,10.40
2024-05-09T02:30:50.264Z,9.60
2024-05-09T02:33:43.535Z,8.80
2024-05-09T02:36:34.076Z,8.90
2024-05-09T02:39:22.035Z,10.63
2024-05-09T02:42:12.585Z,9.97
2024-05-09T02:45:00.537Z,9.77
2024-05-09T02:47:51.289Z,11.00
2024-05-09T02:50:42.361Z,10.37
2024-05-09T02:53:32.975Z,9.43
2024-05-09T02:56:20.883Z,8.93
2024-05-09T02:59:11.819Z,9.90
2024-05-09T03:01:59.837Z,9.60
2024-05-09T03:04:50.502Z,12.57
2024-05-09T03:16:59.347Z,9.73
2024-05-09T03:19:47.335Z,10.33
2024-05-09T03:22:37.947Z,9.50
2024-05-09T03:25:25.841Z,9.97
2024-05-09T03:28:16.340Z,10.37
2024-05-09T03:31:04.380Z,10.13
2024-05-09T03:33:57.578Z,10.30
2024-05-09T03:36:48.258Z,11.73
2024-05-09T03:39:39.008Z,11.67
2024-05-09T03:42:29.452Z,11.13
2024-05-09T03:45:19.970Z,11.50
2024-05-09T03:48:08.835Z,10.60
2024-05-09T03:51:02.202Z,10.80
2024-05-09T03:53:50.132Z,11.43
2024-05-09T03:56:41.596Z,12.50
2024-05-09T03:59:29.643Z,11.53
2024-05-09T04:02:20.263Z,12.13
2024-05-09T04:05:08.176Z,13.27
2024-05-09T04:08:01.488Z,11.63
2024-05-09T04:10:49.467Z,11.13
2024-05-09T04:13:40.016Z,13.03
2024-05-09T04:16:30.511Z,11.97
2024-05-09T04:19:18.484Z,10.83
2024-05-09T04:22:09.964Z,12.53
2024-05-09T04:25:00.442Z,11.77
2024-05-09T04:27:55.651Z,11.57
2024-05-09T04:30:43.838Z,12.63
2024-05-09T04:33:34.651Z,12.20
2024-05-09T04:36:22.941Z,12.50
2024-05-09T04:39:13.453Z,12.63
2024-05-09T04:42:04.275Z,12.33
2024-05-09T04:44:58.299Z,11.03
2024-05-09T04:47:46.957Z,11.50
2024-05-09T04:50:39.265Z,11.07
2024-05-09T04:53:30.462Z,11.43
2024-05-09T04:56:18.331Z,11.03
2024-05-09T04:59:11.566Z,10.53
2024-05-09T05:01:59.583Z,10.90
2024-05-09T05:04:50.202Z,11.17
2024-05-09T05:07:40.854Z,11.53
2024-05-09T05:10:34.040Z,10.50
2024-05-09T05:13:27.732Z,10.90
2024-05-09T05:16:21.922Z,11.80
2024-05-09T05:19:13.416Z,11.40
2024-05-09T05:22:05.512Z,10.97
2024-05-09T05:24:53.393Z,13.03
2024-05-09T05:27:43.844Z,12.30
2024-05-09T05:30:34.714Z,13.23
2024-05-09T05:33:28.514Z,12.77
2024-05-09T05:36:16.470Z,14.27
2024-05-09T05:39:06.936Z,9.93
2024-05-09T05:41:54.749Z,11.37
2024-05-09T05:44:45.367Z,11.37
2024-05-09T05:51:16.048Z,12.07
2024-05-09T05:54:11.657Z,12.10
2024-05-09T05:56:59.756Z,12.27
2024-05-09T05:59:50.201Z,11.83
2024-05-09T06:02:38.086Z,13.30
2024-05-09T06:05:28.625Z,11.83
2024-05-09T06:08:16.672Z,10.73
2024-05-09T06:11:10.416Z,13.27
2024-05-09T06:13:58.388Z,14.40
2024-05-09T06:16:48.852Z,13.30
2024-05-09T06:19:36.954Z,13.00
2024-05-09T06:22:27.466Z,14.57
2024-05-09T06:25:15.449Z,16.80
2024-05-09T06:28:09.005Z,12.90
2024-05-09T06:30:56.789Z,15.27
2024-05-09T06:33:48.171Z,14.97
2024-05-09T06:36:36.119Z,16.47
2024-05-09T06:39:26.684Z,13.80
2024-05-09T06:42:17.100Z,15.17
2024-05-09T06:45:07.930Z,14.97
2024-05-09T06:47:58.546Z,13.87
2024-05-09T06:50:46.851Z,13.93
2024-05-09T06:53:37.517Z,14.77
2024-05-09T06:56:25.609Z,13.87
2024-05-09T06:59:16.195Z,13.13
2024-05-09T07:02:06.783Z,12.87
2024-05-09T07:04:57.362Z,14.43
2024-05-09T07:07:45.311Z,11.47
2024-05-09T07:10:36.827Z,12.80
2024-05-09T07:13:25.052Z,12.20
2024-05-09T07:16:15.551Z,13.63
2024-05-09T07:19:06.777Z,12.00
2024-05-09T07:21:58.097Z,12.77
2024-05-09T07:24:45.969Z,12.07
2024-05-09T07:27:37.396Z,12.37
2024-05-09T07:30:32.702Z,11.73
2024-05-09T07:33:25.160Z,12.50
2024-05-09T07:36:15.820Z,11.60
2024-05-09T07:39:06.378Z,11.67
2024-05-09T07:41:55.293Z,10.90
2024-05-09T07:44:46.085Z,10.83
2024-05-09T07:53:38.732Z,11.93
2024-05-09T07:56:32.026Z,11.23
2024-05-09T07:59:20.138Z,14.10
2024-05-09T08:02:10.842Z,13.77
2024-05-09T08:04:58.863Z,14.03
2024-05-09T08:07:49.574Z,12.53
2024-05-09T08:10:40.210Z,12.33
2024-05-09T08:13:30.819Z,14.10
2024-05-09T08:16:19.011Z,13.90
2024-05-09T08:19:09.717Z,14.13
2024-05-09T08:21:57.763Z,15.57
2024-05-09T08:24:48.477Z,15.52
2024-05-09T08:27:39.881Z,14.20
2024-05-09T08:30:36.466Z,14.68
2024-05-09T08:33:25.969Z,15.15
2024-05-09T08:36:17.849Z,15.75
2024-05-09T08:39:05.721Z,14.35
2024-05-09T08:41:56.288Z,14.07
2024-05-09T08:44:49.527Z,14.65
2024-05-09T08:47:40.308Z,13.77
2024-05-09T08:50:37.916Z,13.50
2024-05-09T08:53:27.627Z,14.50
2024-05-09T08:56:19.222Z,14.50
2024-05-09T08:59:13.597Z,14.57
2024-05-09T09:02:08.929Z,13.00
2024-05-09T09:05:03.336Z,14.32
2024-05-09T09:07:54.239Z,12.70
2024-05-09T09:10:46.566Z,11.88
2024-05-09T09:13:34.500Z,14.10
2024-05-09T09:16:35.388Z,15.27
2024-05-09T09:19:26.341Z,14.40
2024-05-09T09:22:17.082Z,13.68
2024-05-09T09:25:05.805Z,13.40
2024-05-09T09:27:56.741Z,13.55
2024-05-09T09:30:45.922Z,12.52
2024-05-09T09:33:36.823Z,13.02
2024-05-09T09:36:29.027Z,11.60
2024-05-09T09:39:23.635Z,14.88
2024-05-09T09:42:16.694Z,12.05
2024-05-09T09:45:08.265Z,13.27
2024-05-09T09:47:57.237Z,12.20
2024-05-09T09:50:50.226Z,11.77
2024-05-09T09:53:42.550Z,13.88
2024-05-09T09:56:35.277Z,13.52
2024-05-09T09:59:25.447Z,12.85
2024-05-09T10:02:16.572Z,11.13
2024-05-09T10:05:05.350Z,10.52
2024-05-09T10:07:57.303Z,11.27
2024-05-09T10:10:48.974Z,10.90
2024-05-09T10:13:39.615Z,11.27
2024-05-09T10:16:31.287Z,10.30
2024-05-09T10:19:27.523Z,11.70
2024-05-09T10:22:29.849Z,10.35
2024-05-09T10:25:18.640Z,12.32
2024-05-09T10:28:14.670Z,10.07
2024-05-09T10:31:06.990Z,9.68
2024-05-09T10:33:58.621Z,8.07
2024-05-09T10:36:46.827Z,10.50
2024-05-09T10:39:39.115Z,9.95
2024-05-09T10:42:27.322Z,9.70
2024-05-09T10:45:21.690Z,11.98
2024-05-09T10:48:09.863Z,9.90
2024-05-09T10:51:00.568Z,12.35
2024-05-09T10:53:48.914Z,10.57
2024-05-09T10:56:39.568Z,9.85
2024-05-09T10:59:33.325Z,8.45
2024-05-09T11:02:26.750Z,9.10
2024-05-09T11:05:15.095Z,9.10
2024-05-09T11:08:06.838Z,9.05
2024-05-09T11:10:56.340Z,8.95
2024-05-09T11:13:47.170Z,10.75
2024-05-09T11:16:35.254Z,9.15
2024-05-09T11:19:33.571Z,17.65
2024-05-09T11:22:25.115Z,9.90
2024-05-09T11:25:15.988Z,16.52
2024-05-09T11:28:04.228Z,7.97
2024-05-09T11:30:55.016Z,8.95
2024-05-09T11:33:45.432Z,7.72
2024-05-09T11:36:38.887Z,9.18
2024-05-09T11:39:29.856Z,9.27
2024-05-09T11:42:21.078Z,9.77
2024-05-09T11:45:09.149Z,9.52
2024-05-09T11:48:00.202Z,8.38
2024-05-09T11:50:48.364Z,7.38
2024-05-09T11:53:41.694Z,9.35
2024-05-09T11:56:29.733Z,8.10
2024-05-09T11:59:20.538Z,7.65
2024-05-09T12:02:08.555Z,6.93
2024-05-09T12:04:59.452Z,8.60
2024-05-09T12:07:47.435Z,8.25
2024-05-09T12:10:41.164Z,7.82
2024-05-09T12:13:29.510Z,7.57
2024-05-09T12:16:20.883Z,8.40
2024-05-09T12:19:09.208Z,8.60
2024-05-09T12:22:00.156Z,8.52
2024-05-09T12:24:48.438Z,6.00
2024-05-09T12:27:41.986Z,7.40
2024-05-09T12:30:36.592Z,8.23
2024-05-09T12:33:30.347Z,7.28
2024-05-09T12:36:18.417Z,7.95
2024-05-09T12:39:09.533Z,7.15
2024-05-09T12:41:57.353Z,6.55
2024-05-09T12:44:51.101Z,6.22
2024-05-09T12:47:41.682Z,8.38
2024-05-09T12:50:34.169Z,7.88
2024-05-09T12:53:25.249Z,7.53
2024-05-09T12:56:16.021Z,7.53
2024-05-09T12:59:04.130Z,7.17
2024-05-09T13:02:00.414Z,6.95
2024-05-09T13:04:49.081Z,8.57
2024-05-09T13:07:39.825Z,9.23
2024-05-09T13:10:35.741Z,7.97
2024-05-09T13:13:23.833Z,10.43
2024-05-09T13:16:15.909Z,6.90
2024-05-09T13:19:09.404Z,8.37
2024-05-09T13:21:57.405Z,8.10
2024-05-09T13:24:48.149Z,7.37
2024-05-09T13:27:36.426Z,7.90
2024-05-09T13:30:35.564Z,7.13
2024-05-09T13:33:28.104Z,6.83
2024-05-09T13:36:21.403Z,7.63
2024-05-09T13:39:09.343Z,6.83
2024-05-09T13:41:59.822Z,5.73
2024-05-09T13:44:47.697Z,6.23
2024-05-09T13:47:38.350Z,6.03
2024-05-09T13:50:34.191Z,6.37
2024-05-09T13:53:26.824Z,5.97
2024-05-09T13:56:17.354Z,6.27
2024-05-09T13:59:05.534Z,7.57
2024-05-09T14:01:56.120Z,6.37
2024-05-09T14:05:10.872Z,6.60
2024-05-09T14:08:02.183Z,7.47
2024-05-09T14:10:56.223Z,6.77
2024-05-09T14:13:44.524Z,7.07
2024-05-09T14:16:35.843Z,6.83
2024-05-09T14:19:23.865Z,8.07
2024-05-09T14:22:14.515Z,6.70
2024-05-09T14:25:02.863Z,6.50
2024-05-09T14:27:56.340Z,7.60
2024-05-09T14:30:44.305Z,7.60
2024-05-09T14:33:34.910Z,6.23
2024-05-09T14:36:22.959Z,9.03
2024-05-09T14:39:13.419Z,7.30
2024-05-09T14:42:01.288Z,7.53
2024-05-09T14:44:54.479Z,7.70
2024-05-09T14:47:42.504Z,7.00
2024-05-09T14:50:37.333Z,6.93
2024-05-09T14:53:28.403Z,6.53
2024-05-09T14:56:18.996Z,7.70
2024-05-09T14:59:07.578Z,6.87
2024-05-09T15:02:00.779Z,7.17
2024-05-09T15:04:48.877Z,6.20
2024-05-09T15:07:39.732Z,6.30
2024-05-09T15:10:34.807Z,6.90
2024-05-09T15:13:25.163Z,6.80
2024-05-09T15:16:15.847Z,6.53
2024-05-09T15:19:06.570Z,6.57
2024-05-09T15:21:57.332Z,6.73
2024-05-09T15:24:46.369Z,5.90
2024-05-09T15:27:36.982Z,5.03
2024-05-09T15:33:19.012Z,7.43
2024-05-09T15:36:12.634Z,5.87
2024-05-09T15:39:00.885Z,7.30
2024-05-09T15:41:52.959Z,4.97
2024-05-09T15:44:40.837Z,5.37
2024-05-09T15:47:31.653Z,6.03
2024-05-09T15:50:28.311Z,6.00
2024-05-09T15:53:29.170Z,6.77
2024-05-09T15:56:17.360Z,5.73
2024-05-09T15:59:08.137Z,4.80
2024-05-09T16:01:56.966Z,3.90
2024-05-09T16:04:47.583Z,7.53
2024-05-09T16:07:35.588Z,8.00
2024-05-09T16:10:32.703Z,5.73
2024-05-09T16:13:22.113Z,4.57
2024-05-09T16:16:12.763Z,5.43
2024-05-09T16:19:00.771Z,4.83
2024-05-09T16:21:51.302Z,4.60
2024-05-09T16:24:39.724Z,6.97
2024-05-09T16:27:32.941Z,5.93
2024-05-09T16:30:27.301Z,6.07
2024-05-09T16:33:23.955Z,6.80
2024-05-09T16:36:12.113Z,4.37
2024-05-09T16:39:02.790Z,2.97
2024-05-09T16:41:50.584Z,5.90
2024-05-09T16:44:43.658Z,5.37
2024-05-09T16:47:34.301Z,7.07
2024-05-09T16:50:28.868Z,4.73
2024-05-09T16:53:23.230Z,4.83
2024-05-09T16:56:12.589Z,5.23
2024-05-09T16:59:03.117Z,4.67
2024-05-09T17:01:53.691Z,6.30
2024-05-09T17:04:44.234Z,5.03
2024-05-09T17:07:32.426Z,4.60
2024-05-09T17:10:29.654Z,4.47
2024-05-09T17:13:23.839Z,5.87
2024-05-09T17:16:15.612Z,4.57
2024-05-09T17:19:09.432Z,6.00
2024-05-09T17:21:57.308Z,3.63
2024-05-09T17:24:47.822Z,7.13
2024-05-09T17:27:35.968Z,6.57
2024-05-09T17:30:32.481Z,5.27
2024-05-09T17:33:24.338Z,5.90
2024-05-09T17:36:17.556Z,5.20
2024-05-09T17:39:05.702Z,5.10
2024-05-09T17:41:56.153Z,6.17
2024-05-09T17:44:43.951Z,6.43
2024-05-09T17:47:34.486Z,3.97
2024-05-09T17:50:28.022Z,4.70
2024-05-09T17:53:27.654Z,4.73
2024-05-09T17:56:18.337Z,4.50
2024-05-09T17:59:09.197Z,5.90
2024-05-09T18:02:01.480Z,4.80
2024-05-09T18:04:49.516Z,4.67
2024-05-09T18:07:40.073Z,6.57
2024-05-09T18:10:37.240Z,5.93
2024-05-09T18:13:30.089Z,5.57
2024-05-09T18:16:18.569Z,5.93
2024-05-09T18:19:09.681Z,4.47
2024-05-09T18:21:57.706Z,4.80
2024-05-09T18:24:48.254Z,4.73
2024-05-09T18:27:42.089Z,6.10
2024-05-09T18:30:34.866Z,6.17
2024-05-09T18:33:27.313Z,4.73
2024-05-09T18:36:15.294Z,5.57
2024-05-09T18:39:06.235Z,4.77
2024-05-09T18:41:56.730Z,4.83
2024-05-09T18:44:47.245Z,4.20
2024-05-09T18:47:37.911Z,5.37
2024-05-09T18:50:33.711Z,6.63
2024-05-09T18:53:27.898Z,4.67
2024-05-09T18:56:18.479Z,5.03
2024-05-09T18:59:06.432Z,5.60
2024-05-09T19:01:59.576Z,4.57
2024-05-09T19:04:48.293Z,4.17
2024-05-09T19:07:39.088Z,3.33
2024-05-09T19:10:33.657Z,4.93
2024-05-09T19:13:25.873Z,5.43
2024-05-09T19:16:13.931Z,5.23
2024-05-09T19:19:07.648Z,4.30
2024-05-09T19:22:00.613Z,5.90
2024-05-09T19:24:51.165Z,5.70
2024-05-09T19:27:39.075Z,5.30
2024-05-09T19:30:37.779Z,6.40
2024-05-09T19:33:29.385Z,7.93
2024-05-09T19:36:22.754Z,9.93
2024-05-09T19:39:11.632Z,7.83
2024-05-09T19:42:02.131Z,6.70
2024-05-09T19:44:50.150Z,5.67
2024-05-09T19:47:40.803Z,5.13
2024-05-09T19:50:37.170Z,7.30
2024-05-09T19:53:35.658Z,8.37
2024-05-09T19:56:23.596Z,8.23
2024-05-09T19:59:14.544Z,8.40
2024-05-09T20:02:02.627Z,7.93
2024-05-09T20:04:53.995Z,8.03
2024-05-09T20:07:42.241Z,8.03
2024-05-09T20:10:36.501Z,9.20
2024-05-09T20:13:25.091Z,9.40
2024-05-09T20:16:15.675Z,9.07
2024-05-09T20:19:06.261Z,8.90
2024-05-09T20:21:54.213Z,8.97
2024-05-09T20:24:44.738Z,7.63
2024-05-09T20:27:35.239Z,8.00
2024-05-09T20:30:31.701Z,7.57
2024-05-09T20:33:24.000Z,7.43
2024-05-09T20:36:11.943Z,8.17
2024-05-09T20:39:02.487Z,7.87
2024-05-09T20:41:50.365Z,8.77
2024-05-09T20:44:43.418Z,9.40
2024-05-09T20:47:31.382Z,7.03
2024-05-09T20:50:29.170Z,6.67
2024-05-09T20:53:24.758Z,8.97
2024-05-09T20:56:15.224Z,7.13
2024-05-09T20:59:05.683Z,8.47
2024-05-09T21:01:56.228Z,8.13
2024-05-09T21:04:46.832Z,8.63
2024-05-09T21:07:34.738Z,6.50
2024-05-09T21:10:27.132Z,6.73
2024-05-09T21:13:20.132Z,7.63
2024-05-09T21:16:08.491Z,7.07
2024-05-09T21:19:01.669Z,7.20
2024-05-09T21:21:53.406Z,7.27
2024-05-09T21:24:41.332Z,7.50
2024-05-09T21:27:33.651Z,8.00
2024-05-09T21:30:31.820Z,8.40
2024-05-09T21:33:30.881Z,13.03
2024-05-09T21:36:21.517Z,14.87
2024-05-09T21:39:13.919Z,11.00
2024-05-09T21:42:02.727Z,11.37
2024-05-09T21:44:53.214Z,9.50
2024-05-09T21:47:41.140Z,10.37
2024-05-09T21:50:38.869Z,8.97
2024-05-09T21:53:32.792Z,9.07
2024-05-09T21:56:24.340Z,9.77
2024-05-09T21:59:12.164Z,10.30
2024-05-09T22:02:03.263Z,10.50
2024-05-09T22:04:51.267Z,11.37
2024-05-09T22:07:42.057Z,12.67
2024-05-09T22:10:35.067Z,10.00
2024-05-09T22:13:28.708Z,9.87
2024-05-09T22:16:16.571Z,9.77
2024-05-09T22:19:07.081Z,9.47
2024-05-09T22:21:55.486Z,9.30
2024-05-09T22:24:45.980Z,8.50
2024-05-09T22:27:36.912Z,10.33
2024-05-09T22:30:34.783Z,8.67
2024-05-09T22:33:26.039Z,8.70
2024-05-09T22:36:16.599Z,10.47
2024-05-09T22:39:06.590Z,8.37
2024-05-09T22:41:57.025Z,8.50
2024-05-09T22:44:47.459Z,9.93
2024-05-09T22:47:37.996Z,7.90
2024-05-09T22:50:27.240Z,10.57
2024-05-09T22:53:24.706Z,11.30
2024-05-09T22:56:15.146Z,11.83
2024-05-09T22:59:06.684Z,9.17
2024-05-09T23:01:57.248Z,12.27
2024-05-09T23:04:48.197Z,11.50
2024-05-09T23:07:36.057Z,13.37
2024-05-09T23:10:32.476Z,12.20
2024-05-09T23:13:26.985Z,11.57
2024-05-09T23:16:17.712Z,12.77
2024-05-09T23:19:09.616Z,12.57
2024-05-09T23:22:00.160Z,13.20
2024-05-09T23:24:48.188Z,13.30
2024-05-09T23:27:39.184Z,13.03
2024-05-09T23:30:34.706Z,11.33
2024-05-09T23:33:29.150Z,14.00
2024-05-09T23:36:19.602Z,14.57
2024-05-09T23:39:10.337Z,12.50
2024-05-09T23:41:58.171Z,13.30
2024-05-09T23:44:48.637Z,12.50
2024-05-09T23:47:36.535Z,13.27
2024-05-09T23:50:34.152Z,12.37
2024-05-09T23:53:27.669Z,12.00
2024-05-09T23:56:18.646Z,12.80
2024-05-09T23:59:06.622Z,12.93
